Time;durP1;ratioP1;P1;durP2;ratioP2;P2;SDS_P1;SDS_P2;PMS_P1;PMS_P2;Temp;Humidity;BMP_temperature;BMP_pressure;BME280_temperature;BME280_humidity;BME280_pressure;Samples;Min_cycle;Max_cycle;Signal;HPM_P1;HPM_P2
2021/12/28 00:03:49;;;;;;;36.80;28.30;;;;;;;5.13;74.98;96589.59;8457435;28;20547;-73
2021/12/28 00:07:53;;;;;;;34.27;26.77;;;;;;;5.16;75.00;96584.31;8467269;28;20297;-75
2021/12/28 00:11:56;;;;;;;32.13;26.60;;;;;;;5.12;74.56;96587.91;8467252;28;20234;-74
2021/12/28 00:16:23;;;;;;;32.93;26.20;;;;;;;5.30;74.24;96584.53;8467263;28;20533;-73
2021/12/28 00:20:26;;;;;;;33.03;27.10;;;;;;;5.20;74.85;96586.69;8483336;28;20345;-74
2021/12/28 00:24:31;;;;;;;34.13;26.03;;;;;;;5.34;74.21;96587.78;8483422;28;20399;-74
2021/12/28 00:28:34;;;;;;;32.67;26.00;;;;;;;5.22;75.79;96578.91;8483727;27;20233;-73
2021/12/28 00:32:37;;;;;;;32.10;26.30;;;;;;;5.22;75.24;96584.88;8483627;28;20233;-74
2021/12/28 00:36:40;;;;;;;30.17;25.17;;;;;;;5.28;74.97;96578.63;8483376;27;20233;-74
2021/12/28 00:40:44;;;;;;;30.20;23.63;;;;;;;5.39;74.52;96575.59;8482643;28;20244;-74
2021/12/28 00:44:47;;;;;;;32.57;24.60;;;;;;;5.58;73.86;96561.00;8482852;28;20233;-75
2021/12/28 00:48:50;;;;;;;29.40;24.27;;;;;;;5.85;72.75;96569.13;8482247;28;20300;-74
2021/12/28 00:52:55;;;;;;;27.90;23.10;;;;;;;5.53;74.80;96570.63;8482262;28;20233;-74
2021/12/28 00:57:01;;;;;;;27.80;22.97;;;;;;;5.55;75.12;96575.69;8482169;28;20451;-74
2021/12/28 01:01:04;;;;;;;27.40;22.43;;;;;;;5.58;74.56;96572.97;8481972;28;20233;-75
2021/12/28 01:05:08;;;;;;;29.13;23.83;;;;;;;5.67;74.62;96575.97;8481453;28;20335;-74
2021/12/28 01:09:11;;;;;;;28.20;23.50;;;;;;;5.54;74.89;96563.75;8481831;28;20240;-74
2021/12/28 01:13:17;;;;;;;29.60;23.73;;;;;;;5.50;75.04;96555.34;8481552;28;20241;-74
2021/12/28 01:17:20;;;;;;;25.33;21.17;;;;;;;6.01;73.37;96569.22;8481481;28;20532;-74
2021/12/28 01:21:23;;;;;;;24.40;21.10;;;;;;;6.02;72.95;96583.75;8481222;28;20248;-75
2021/12/28 01:25:27;;;;;;;25.10;21.17;;;;;;;5.96;73.43;96571.22;8481344;28;20571;-75
2021/12/28 01:29:32;;;;;;;26.63;21.80;;;;;;;5.60;75.60;96571.19;8481326;28;20347;-76
2021/12/28 01:33:35;;;;;;;25.70;21.67;;;;;;;5.71;75.55;96574.06;8481420;28;20237;-76
2021/12/28 01:37:39;;;;;;;24.17;21.57;;;;;;;5.70;74.79;96574.97;8481114;28;20500;-75
2021/12/28 01:41:42;;;;;;;23.80;21.13;;;;;;;5.79;75.15;96574.56;8480924;28;20428;-75
2021/12/28 01:45:49;;;;;;;24.70;21.13;;;;;;;5.84;74.79;96558.91;8483429;28;20437;-75
2021/12/28 01:49:52;;;;;;;26.17;22.07;;;;;;;5.79;75.02;96546.28;8483302;28;20202;-75
2021/12/28 01:53:57;;;;;;;29.70;21.83;;;;;;;5.87;74.16;96533.09;8457259;28;20241;-76
2021/12/28 01:58:01;;;;;;;24.37;21.47;;;;;;;5.91;74.17;96541.47;8447122;28;20347;-75
2021/12/28 02:02:05;;;;;;;24.10;19.67;;;;;;;5.87;74.53;96533.91;8447344;28;20234;-74
2021/12/28 02:06:08;;;;;;;24.47;20.70;;;;;;;5.82;74.86;96532.47;8446293;28;20233;-75
2021/12/28 02:10:11;;;;;;;23.37;19.90;;;;;;;5.79;74.05;96524.91;8446936;28;20226;-74
2021/12/28 02:14:14;;;;;;;22.17;19.43;;;;;;;5.99;74.08;96526.53;8450518;28;20234;-73
2021/12/28 02:18:21;;;;;;;24.10;19.40;;;;;;;5.91;74.14;96539.72;8453734;28;20423;-74
2021/12/28 02:22:26;;;;;;;23.17;19.67;;;;;;;5.93;74.08;96540.47;8453478;28;20234;-74
2021/12/28 02:26:29;;;;;;;20.60;18.30;;;;;;;6.31;73.08;96562.69;8453316;28;20230;-75
2021/12/28 02:30:32;;;;;;;21.23;18.93;;;;;;;6.22;73.58;96551.94;8453093;28;20237;-74
2021/12/28 02:34:35;;;;;;;25.42;22.20;;;;;;;6.50;72.71;96553.13;8451765;28;20414;-73
2021/12/28 02:38:41;;;;;;;22.33;18.63;;;;;;;6.24;73.79;96528.72;8454092;28;20290;-73
2021/12/28 02:42:44;;;;;;;22.33;19.67;;;;;;;5.64;76.26;96523.91;8486492;28;20240;-73
2021/12/28 02:46:47;;;;;;;22.17;19.37;;;;;;;6.03;74.44;96523.72;8486659;28;20415;-73
2021/12/28 02:50:52;;;;;;;23.67;20.37;;;;;;;5.97;75.01;96525.78;8486500;28;20450;-73
2021/12/28 02:54:56;;;;;;;21.70;19.23;;;;;;;5.94;75.17;96523.31;8486601;28;20411;-73
2021/12/28 02:59:01;;;;;;;21.83;18.70;;;;;;;5.75;76.51;96513.97;8486057;28;20237;-73
2021/12/28 03:03:07;;;;;;;21.53;18.20;;;;;;;5.98;75.06;96507.72;8486030;28;20241;-73
2021/12/28 03:07:10;;;;;;;20.30;18.20;;;;;;;5.93;75.01;96493.41;8485533;28;20520;-73
2021/12/28 03:11:14;;;;;;;22.63;18.63;;;;;;;5.75;75.25;96487.41;8486070;28;20233;-73
2021/12/28 03:15:17;;;;;;;19.80;17.57;;;;;;;6.12;73.97;96472.81;8486015;28;20237;-73
2021/12/28 03:19:20;;;;;;;19.23;17.20;;;;;;;5.90;75.30;96471.25;8485528;28;20264;-73
2021/12/28 03:23:24;;;;;;;18.67;16.50;;;;;;;6.20;74.05;96474.06;8485626;28;20233;-73
2021/12/28 03:27:29;;;;;;;19.27;17.00;;;;;;;5.91;74.81;96478.06;8483246;28;20423;-73
2021/12/28 03:31:32;;;;;;;16.20;14.50;;;;;;;6.27;74.57;96482.31;8484117;28;20224;-73
2021/12/28 03:35:35;;;;;;;16.97;15.27;;;;;;;6.03;75.36;96476.66;8481805;28;20237;-73
2021/12/28 03:39:38;;;;;;;17.87;15.97;;;;;;;6.11;74.36;96469.41;8483997;28;20237;-73
2021/12/28 03:43:45;;;;;;;15.90;14.27;;;;;;;6.36;74.41;96460.41;8483748;28;20225;-73
2021/12/28 03:47:48;;;;;;;16.97;15.17;;;;;;;6.55;73.30;96468.00;8483589;28;20225;-73
2021/12/28 03:51:51;;;;;;;15.87;14.33;;;;;;;6.39;74.11;96463.66;8483504;28;20221;-73
2021/12/28 03:55:54;;;;;;;15.70;14.13;;;;;;;6.33;74.69;96466.56;8483387;28;20229;-73
2021/12/28 03:59:59;;;;;;;16.97;15.07;;;;;;;6.25;74.93;96440.41;8483012;28;20226;-73
2021/12/28 04:04:02;;;;;;;16.63;14.93;;;;;;;6.14;74.86;96440.13;8482842;28;20396;-73
2021/12/28 04:08:05;;;;;;;16.77;14.97;;;;;;;5.92;75.98;96428.34;8482803;28;20417;-73
2021/12/28 04:12:09;;;;;;;16.03;14.33;;;;;;;6.02;74.98;96416.72;8479913;28;20222;-73
2021/12/28 04:16:13;;;;;;;14.57;13.07;;;;;;;6.33;74.48;96414.31;8480735;28;20225;-73
2021/12/28 04:20:19;;;;;;;17.23;14.27;;;;;;;6.04;75.16;96414.06;8482332;28;20249;-73
2021/12/28 04:24:22;;;;;;;15.60;14.00;;;;;;;6.14;75.10;96420.41;8482420;28;20236;-73
2021/12/28 04:28:25;;;;;;;16.10;14.40;;;;;;;6.40;74.01;96423.38;8482050;28;20240;-73
2021/12/28 04:32:30;;;;;;;19.83;14.37;;;;;;;6.47;73.39;96427.25;8480459;28;20240;-73
2021/12/28 04:36:33;;;;;;;15.10;13.57;;;;;;;6.42;73.75;96419.81;8481717;28;20227;-73
2021/12/28 04:40:36;;;;;;;14.97;13.43;;;;;;;6.44;74.13;96435.16;8481830;28;20221;-73
2021/12/28 04:44:39;;;;;;;14.43;12.93;;;;;;;6.22;74.64;96438.00;8481421;28;20225;-73
2021/12/28 04:48:44;;;;;;;20.33;15.50;;;;;;;6.05;74.94;96428.56;8479332;28;20221;-73
2021/12/28 04:52:47;;;;;;;16.90;14.40;;;;;;;6.16;75.33;96425.47;8481444;28;20222;-73
2021/12/28 04:56:50;;;;;;;16.23;13.50;;;;;;;6.45;74.59;96429.09;8481257;28;20239;-73
2021/12/28 05:00:54;;;;;;;19.83;15.40;;;;;;;6.33;74.67;96432.31;8480966;28;20217;-73
2021/12/28 05:04:58;;;;;;;17.77;14.63;;;;;;;6.31;74.99;96422.09;8480985;28;20225;-73
2021/12/28 05:09:01;;;;;;;16.93;15.00;;;;;;;6.40;74.29;96418.22;8479166;28;20228;-73
2021/12/28 05:13:04;;;;;;;18.13;15.03;;;;;;;6.24;75.63;96419.03;8480839;28;20236;-72
2021/12/28 05:17:08;;;;;;;21.30;15.50;;;;;;;6.14;76.07;96406.72;8480463;28;20399;-73
2021/12/28 05:21:12;;;;;;;20.40;16.87;;;;;;;6.09;76.13;96414.66;8480707;28;20232;-73
2021/12/28 05:25:15;;;;;;;21.83;16.87;;;;;;;6.05;75.97;96413.16;8478434;28;20232;-73
2021/12/28 05:29:18;;;;;;;23.83;18.10;;;;;;;6.01;77.04;96409.09;8478379;28;20229;-73
2021/12/28 05:33:22;;;;;;;22.33;18.50;;;;;;;6.21;76.27;96403.75;8480354;28;20229;-73
2021/12/28 05:37:26;;;;;;;24.23;19.27;;;;;;;6.31;75.85;96398.97;8480294;28;20559;-73
2021/12/28 05:41:29;;;;;;;24.77;19.47;;;;;;;6.24;76.42;96401.03;8479780;28;20244;-73
2021/12/28 05:45:33;;;;;;;25.23;20.47;;;;;;;6.11;76.41;96399.16;8477962;28;20416;-73
2021/12/28 05:49:36;;;;;;;23.97;20.33;;;;;;;6.29;76.53;96395.66;8479378;28;20229;-73
2021/12/28 05:53:40;;;;;;;25.63;20.73;;;;;;;6.28;75.87;96388.81;8480124;28;20263;-73
2021/12/28 05:57:43;;;;;;;27.13;21.87;;;;;;;6.06;77.63;96386.56;8479765;28;20221;-73
2021/12/28 06:01:46;;;;;;;27.67;20.60;;;;;;;6.25;76.82;96384.69;8479624;28;20400;-73
2021/12/28 06:05:49;;;;;;;28.27;21.60;;;;;;;6.20;76.80;96383.25;8479451;28;20233;-73
2021/12/28 06:09:54;;;;;;;30.73;22.80;;;;;;;6.67;75.50;96381.66;8478027;28;20225;-73
2021/12/28 06:13:57;;;;;;;31.57;23.30;;;;;;;6.57;75.32;96384.72;8479593;28;20225;-73
2021/12/28 06:18:07;;;;;;;37.33;23.40;;;;;;;6.33;75.79;96378.31;8479179;28;20524;-73
2021/12/28 06:22:10;;;;;;;30.50;22.40;;;;;;;6.54;75.54;96373.78;8477406;28;20244;-73
2021/12/28 06:26:14;;;;;;;34.40;22.90;;;;;;;6.51;75.24;96389.38;8479233;28;20229;-73
2021/12/28 06:30:18;;;;;;;31.57;22.23;;;;;;;6.83;74.12;96387.63;8479222;28;20237;-72
2021/12/28 06:34:20;;;;;;;33.97;23.13;;;;;;;6.51;74.91;96385.06;8479247;28;20238;-73
2021/12/28 06:38:24;;;;;;;30.30;22.40;;;;;;;6.81;74.29;96379.16;8479163;28;20221;-73
2021/12/28 06:42:28;;;;;;;35.23;25.57;;;;;;;7.04;72.88;96399.34;8478903;28;20238;-73
2021/12/28 06:46:31;;;;;;;32.07;23.27;;;;;;;6.84;73.65;96384.97;8478699;28;20535;-73
2021/12/28 06:50:34;;;;;;;32.37;23.83;;;;;;;7.05;73.00;96380.38;8478806;28;20407;-73
2021/12/28 06:54:39;;;;;;;30.53;22.60;;;;;;;6.94;72.91;96379.34;8478931;28;20291;-73
2021/12/28 06:58:43;;;;;;;35.00;23.23;;;;;;;6.78;73.53;96384.50;8477251;28;20222;-73
2021/12/28 07:02:46;;;;;;;30.33;23.00;;;;;;;6.63;74.43;96368.16;8484427;28;20229;-73
2021/12/28 07:06:49;;;;;;;35.77;22.93;;;;;;;6.59;74.60;96356.38;8483802;28;20233;-73
2021/12/28 07:10:52;;;;;;;31.80;24.03;;;;;;;6.70;74.57;96355.75;8481412;28;20225;-73
2021/12/28 07:14:56;;;;;;;32.50;22.70;;;;;;;6.89;73.57;96358.16;8481036;28;20225;-74
2021/12/28 07:18:59;;;;;;;29.07;21.53;;;;;;;7.00;73.26;96356.66;8476936;28;20229;-73
2021/12/28 07:23:02;;;;;;;28.67;21.10;;;;;;;6.61;74.34;96345.06;8482634;28;20222;-73
2021/12/28 07:27:05;;;;;;;28.23;22.20;;;;;;;6.90;73.40;96342.63;8480890;28;20229;-73
2021/12/28 07:31:10;;;;;;;27.93;20.70;;;;;;;7.21;72.65;96349.47;8470635;28;20222;-73
2021/12/28 07:35:13;;;;;;;28.37;21.67;;;;;;;6.82;73.25;96349.97;8468250;28;20234;-73
2021/12/28 07:39:16;;;;;;;27.33;20.40;;;;;;;6.60;74.70;96343.41;8472136;28;20226;-73
2021/12/28 07:43:20;;;;;;;28.03;20.63;;;;;;;6.26;74.95;96339.22;8472158;28;20244;-73
2021/12/28 07:47:24;;;;;;;24.57;19.57;;;;;;;6.57;75.17;96353.03;8475052;28;20225;-73
2021/12/28 07:51:27;;;;;;;23.63;18.90;;;;;;;6.71;73.68;96354.88;8474561;28;20428;-73
2021/12/28 07:55:30;;;;;;;26.60;19.60;;;;;;;6.43;74.66;96356.34;8461932;28;20498;-74
2021/12/28 07:59:34;;;;;;;23.33;19.17;;;;;;;6.29;75.47;96351.94;8462764;28;20229;-74
2021/12/28 08:03:38;;;;;;;21.60;17.83;;;;;;;6.56;74.54;96348.81;8461440;28;20522;-73
2021/12/28 08:07:41;;;;;;;20.03;17.13;;;;;;;6.42;75.14;96352.13;8461903;28;20222;-73
2021/12/28 08:11:44;;;;;;;27.13;20.07;;;;;;;6.56;74.63;96359.09;8454249;28;20233;-73
2021/12/28 08:15:48;;;;;;;24.27;19.33;;;;;;;6.69;73.55;96362.66;8456786;28;20437;-73
2021/12/28 08:19:52;;;;;;;26.47;21.83;;;;;;;6.44;75.14;96355.44;8456317;28;20228;-73
2021/12/28 08:23:55;;;;;;;20.97;18.67;;;;;;;6.65;73.97;96359.41;8446720;28;20537;-74
2021/12/28 08:28:00;;;;;;;22.00;18.27;;;;;;;6.71;73.57;96357.44;8457693;28;20230;-73
2021/12/28 08:32:04;;;;;;;20.17;16.97;;;;;;;6.34;74.52;96339.69;8429072;28;20419;-73
2021/12/28 08:36:09;;;;;;;18.20;16.20;;;;;;;6.50;75.09;96344.81;8455162;28;20256;-73
2021/12/28 08:40:13;;;;;;;22.67;16.47;;;;;;;6.20;75.82;96334.44;8456395;28;20233;-74
2021/12/28 08:44:16;;;;;;;19.33;14.70;;;;;;;6.17;76.08;96339.72;8447680;28;20434;-73
2021/12/28 08:48:19;;;;;;;17.07;14.67;;;;;;;6.37;75.87;96329.22;8445530;28;20226;-73
2021/12/28 08:52:24;;;;;;;16.27;13.97;;;;;;;6.53;75.31;96324.09;8447762;28;20233;-73
2021/12/28 08:56:27;;;;;;;17.37;14.97;;;;;;;6.26;75.58;96310.94;8447666;28;20242;-73
2021/12/28 09:00:33;;;;;;;15.57;13.87;;;;;;;6.45;75.40;96314.22;8445774;28;20241;-73
2021/12/28 09:04:36;;;;;;;16.77;13.40;;;;;;;6.54;74.29;96305.16;8471987;28;20237;-73
2021/12/28 09:08:41;;;;;;;14.70;13.10;;;;;;;6.52;74.52;96303.59;8480986;28;20234;-73
2021/12/28 09:12:43;;;;;;;15.33;13.50;;;;;;;6.45;75.39;96296.22;8480764;28;20221;-72
2021/12/28 09:16:46;;;;;;;13.43;11.23;;;;;;;6.48;75.05;96297.78;8480632;28;20225;-72
2021/12/28 09:20:50;;;;;;;14.70;11.97;;;;;;;6.10;76.27;96299.84;8478586;28;20528;-72
2021/12/28 09:24:55;;;;;;;13.53;11.40;;;;;;;6.32;75.47;96294.38;8477876;28;20244;-73
2021/12/28 09:28:58;;;;;;;14.47;10.87;;;;;;;6.37;75.45;96288.06;8480548;28;20240;-74
2021/12/28 09:33:01;;;;;;;11.27;9.80;;;;;;;6.35;76.09;96289.06;8480439;28;20405;-74
2021/12/28 09:37:05;;;;;;;12.33;9.90;;;;;;;6.32;75.42;96290.09;8480484;28;20228;-74
2021/12/28 09:41:09;;;;;;;10.83;9.57;;;;;;;6.23;76.38;96282.84;8448376;28;20233;-74
2021/12/28 09:45:14;;;;;;;12.20;8.40;;;;;;;6.80;73.98;96274.59;8478121;28;20225;-74
2021/12/28 09:49:17;;;;;;;9.53;8.53;;;;;;;6.46;75.56;96276.47;8479609;28;20225;-68
2021/12/28 09:53:21;;;;;;;9.87;8.87;;;;;;;6.78;74.91;96272.09;8479529;28;20406;-69
2021/12/28 09:57:27;;;;;;;12.00;9.53;;;;;;;6.72;75.26;96269.88;8479685;28;20253;-68
2021/12/28 10:01:30;;;;;;;12.57;9.23;;;;;;;6.65;75.41;96260.84;8473551;28;20545;-69
2021/12/28 10:05:33;;;;;;;9.73;7.90;;;;;;;6.96;74.92;96256.53;8447206;28;20238;-68
2021/12/28 10:09:36;;;;;;;9.93;8.00;;;;;;;7.11;75.03;96244.53;8447146;28;20230;-69
2021/12/28 10:13:41;;;;;;;14.10;8.00;;;;;;;7.24;74.62;96241.16;8442002;28;20253;-69
2021/12/28 10:17:46;;;;;;;17.67;12.60;;;;;;;7.42;74.31;96239.25;8437974;28;20555;-69
2021/12/28 10:21:49;;;;;;;27.80;22.27;;;;;;;7.44;74.53;96240.00;8446048;28;20242;-69
2021/12/28 10:25:53;;;;;;;9.57;8.57;;;;;;;7.46;74.62;96229.56;8444614;28;20225;-69
2021/12/28 10:30:08;;;;;;;9.23;6.93;;;;;;;7.41;75.41;96217.00;8445222;28;20226;-69
2021/12/28 10:34:19;;;;;;;7.73;5.40;;;;;;;7.74;74.51;96218.44;8447888;28;20537;-69
2021/12/28 10:38:24;;;;;;;6.27;4.77;;;;;;;7.60;75.44;96210.75;8452569;28;20228;-68
2021/12/28 10:42:43;;;;;;;7.17;4.67;;;;;;;7.66;76.13;96209.53;8451940;28;20249;-69
2021/12/28 10:46:48;;;;;;;4.63;3.90;;;;;;;7.73;75.57;96205.66;8450405;28;20238;-68
2021/12/28 10:50:54;;;;;;;4.67;3.17;;;;;;;7.79;76.15;96210.47;8451884;28;20222;-68
2021/12/28 10:55:18;;;;;;;5.03;3.07;;;;;;;7.87;76.00;96195.34;8451593;28;20222;-68
2021/12/28 10:59:23;;;;;;;4.13;2.50;;;;;;;8.12;76.02;96202.38;8451445;28;20393;-69
2021/12/28 11:03:33;;;;;;;3.83;2.30;;;;;;;7.98;77.08;96180.03;8451435;28;20222;-69
2021/12/28 11:07:36;;;;;;;5.00;2.50;;;;;;;8.26;76.16;96175.72;8450017;28;20226;-69
2021/12/28 11:11:41;;;;;;;2.97;1.50;;;;;;;8.38;76.14;96167.19;8451453;28;20225;-68
2021/12/28 11:15:46;;;;;;;3.03;1.47;;;;;;;8.63;75.73;96157.09;8449350;28;20289;-68
2021/12/28 11:19:59;;;;;;;2.63;1.63;;;;;;;8.64;75.77;96153.56;8450903;28;20230;-68
2021/12/28 11:24:04;;;;;;;3.40;1.67;;;;;;;8.60;76.69;96148.63;8449481;28;20328;-68
2021/12/28 11:28:19;;;;;;;2.50;1.63;;;;;;;8.82;75.50;96142.03;8450207;28;20226;-69
2021/12/28 11:32:22;;;;;;;1.60;1.30;;;;;;;8.94;75.04;96136.03;8449994;28;20230;-69
2021/12/28 11:36:29;;;;;;;3.97;1.50;;;;;;;9.11;74.37;96131.50;8450471;28;20233;-68
2021/12/28 11:40:31;;;;;;;3.87;2.00;;;;;;;9.12;74.51;96138.31;8448777;28;20229;-69
2021/12/28 11:44:35;;;;;;;1.30;1.20;;;;;;;9.20;74.92;96123.97;8449916;28;20536;-69
2021/12/28 11:48:38;;;;;;;3.13;2.00;;;;;;;9.13;74.70;96127.06;8449195;28;20226;-68
2021/12/28 11:52:42;;;;;;;3.47;1.63;;;;;;;9.09;74.40;96120.47;8450093;28;20228;-69
2021/12/28 11:56:52;;;;;;;1.97;1.30;;;;;;;9.32;74.04;96124.88;8448060;28;20528;-68
2021/12/28 12:00:55;;;;;;;3.10;1.50;;;;;;;9.27;74.77;96111.47;8450879;28;20245;-69
2021/12/28 12:04:58;;;;;;;2.37;1.90;;;;;;;9.30;74.58;96115.59;8450163;28;20234;-69
2021/12/28 12:09:06;;;;;;;2.93;1.40;;;;;;;9.29;75.46;96117.34;8450416;28;20234;-68
2021/12/28 12:13:27;;;;;;;2.53;1.83;;;;;;;9.37;74.72;96112.47;8449837;28;20234;-69
2021/12/28 12:17:38;;;;;;;5.60;1.90;;;;;;;10.32;77.14;96109.31;8450043;28;20241;-65
2021/12/28 12:21:41;;;;;;;2.97;1.70;;;;;;;10.23;75.77;96103.00;8449234;28;20230;-65
2021/12/28 12:25:50;;;;;;;4.13;1.80;;;;;;;9.81;74.02;96104.31;8448719;28;20226;-68
2021/12/28 12:29:53;;;;;;;2.30;1.50;;;;;;;9.79;73.69;96089.72;8447061;28;20245;-69
2021/12/28 12:33:57;;;;;;;2.40;1.53;;;;;;;9.70;73.93;96084.38;8448813;28;20229;-68
2021/12/28 12:38:02;;;;;;;1.97;1.40;;;;;;;9.82;73.54;96080.91;8448474;28;20571;-68
2021/12/28 12:42:12;;;;;;;3.47;1.80;;;;;;;9.66;74.07;96073.44;8445846;28;20230;-69
2021/12/28 12:46:23;;;;;;;4.70;1.77;;;;;;;9.66;74.46;96075.22;8448832;28;20234;-69
2021/12/28 12:50:26;;;;;;;2.67;1.90;;;;;;;9.78;74.51;96075.13;8449285;28;20237;-70
2021/12/28 12:54:37;;;;;;;2.03;1.47;;;;;;;9.69;75.07;96064.63;8448732;28;20237;-70
2021/12/28 12:58:45;;;;;;;1.87;1.50;;;;;;;9.70;75.34;96063.72;8448608;28;20234;-70
2021/12/28 13:02:58;;;;;;;3.97;2.00;;;;;;;9.81;74.42;96070.72;8448524;28;20226;-70
2021/12/28 13:07:04;;;;;;;3.33;1.93;;;;;;;9.73;75.54;96072.06;8445625;28;20237;-69
2021/12/28 13:11:07;;;;;;;5.17;2.50;;;;;;;9.83;75.18;96074.00;8447759;28;20536;-69
2021/12/28 13:15:12;;;;;;;1.60;1.50;;;;;;;9.81;74.96;96065.53;8447587;28;20222;-69
2021/12/28 13:19:17;;;;;;;3.13;2.10;;;;;;;9.92;74.87;96060.44;8448735;28;20245;-69
2021/12/28 13:23:20;;;;;;;1.67;1.40;;;;;;;9.85;75.12;96054.88;8448127;28;20245;-69
2021/12/28 13:27:23;;;;;;;3.67;1.93;;;;;;;9.84;75.64;96060.13;8446873;28;20397;-70
2021/12/28 13:31:28;;;;;;;4.13;2.47;;;;;;;9.88;75.60;96053.81;8446840;28;20234;-70
2021/12/28 13:35:32;;;;;;;3.53;1.97;;;;;;;9.92;75.36;96060.44;8446788;28;20241;-69
2021/12/28 13:39:43;;;;;;;2.13;1.70;;;;;;;9.91;75.93;96051.81;8446630;28;20524;-70
2021/12/28 13:43:48;;;;;;;2.60;1.87;;;;;;;10.06;74.82;96047.31;8445846;28;20319;-70
2021/12/28 13:47:53;;;;;;;2.87;2.30;;;;;;;10.20;74.58;96041.13;8446547;28;20226;-70
2021/12/28 13:51:56;;;;;;;3.37;2.40;;;;;;;10.11;74.73;96037.47;8446169;28;20249;-70
2021/12/28 13:56:01;;;;;;;2.97;2.10;;;;;;;10.00;75.08;96032.25;8446096;28;20236;-70
2021/12/28 14:00:05;;;;;;;2.33;2.10;;;;;;;10.23;74.56;96030.56;8445944;28;20222;-70
2021/12/28 14:04:12;;;;;;;2.90;2.23;;;;;;;10.23;74.86;96022.78;8444403;28;20224;-71
2021/12/28 14:08:18;;;;;;;2.63;2.27;;;;;;;10.29;74.80;96009.41;8445946;28;20237;-70
2021/12/28 14:12:21;;;;;;;4.77;3.77;;;;;;;10.40;74.07;96007.81;8450665;28;20319;-70
2021/12/28 14:16:30;;;;;;;5.50;4.20;;;;;;;10.46;74.32;96015.13;8452600;28;20237;-70
2021/12/28 14:20:34;;;;;;;5.70;2.60;;;;;;;10.39;74.87;96001.81;8452319;28;20233;-70
2021/12/28 14:24:38;;;;;;;3.80;2.53;;;;;;;10.34;74.58;95994.41;8450669;28;20232;-71
2021/12/28 14:28:42;;;;;;;3.57;2.40;;;;;;;10.43;75.06;96002.41;8452672;28;20249;-70
2021/12/28 14:32:47;;;;;;;2.80;2.50;;;;;;;10.26;75.35;96009.66;8452713;28;20222;-70
2021/12/28 14:36:51;;;;;;;3.97;3.10;;;;;;;10.45;74.66;96021.22;8452617;28;20225;-70
2021/12/28 14:40:54;;;;;;;4.50;3.20;;;;;;;10.59;74.28;96009.84;8450877;28;20547;-70
2021/12/28 14:45:00;;;;;;;4.23;3.07;;;;;;;10.48;75.18;96008.88;8452501;28;20222;-70
2021/12/28 14:49:15;;;;;;;4.87;2.83;;;;;;;10.41;75.00;96004.28;8452012;28;20222;-70
2021/12/28 14:53:21;;;;;;;2.53;2.30;;;;;;;10.31;75.61;96001.56;8450780;28;20421;-71
2021/12/28 14:57:25;;;;;;;2.50;2.20;;;;;;;10.33;76.01;96004.84;8450159;28;20540;-70
2021/12/28 15:01:35;;;;;;;2.97;2.20;;;;;;;10.36;75.73;96009.81;8451270;28;20236;-70
2021/12/28 15:05:41;;;;;;;3.67;2.37;;;;;;;10.22;76.92;95987.50;8449165;28;20254;-70
2021/12/28 15:09:50;;;;;;;2.37;1.93;;;;;;;10.34;76.63;96012.50;8451219;28;20226;-70
2021/12/28 15:13:55;;;;;;;3.07;2.27;;;;;;;10.45;76.41;96016.03;8449895;28;20284;-70
2021/12/28 15:17:59;;;;;;;3.50;2.50;;;;;;;10.45;76.62;96018.63;8451151;28;20416;-70
2021/12/28 15:22:03;;;;;;;3.43;2.40;;;;;;;10.62;75.82;96014.78;8451010;28;20230;-70
2021/12/28 15:26:10;;;;;;;2.33;2.13;;;;;;;10.48;76.04;96011.47;8451110;28;20413;-70
2021/12/28 15:30:16;;;;;;;3.07;2.77;;;;;;;10.45;75.68;96018.63;8451315;28;20222;-70
2021/12/28 15:34:22;;;;;;;4.10;3.43;;;;;;;10.54;75.31;96021.34;8450532;28;20226;-70
2021/12/28 15:38:25;;;;;;;4.57;3.27;;;;;;;10.64;75.62;96018.94;8448839;28;20536;-70
2021/12/28 15:42:32;;;;;;;3.37;3.00;;;;;;;10.62;75.71;96028.53;8450438;28;20230;-71
2021/12/28 15:46:38;;;;;;;3.67;2.73;;;;;;;10.59;75.63;96028.78;8450480;28;20589;-70
2021/12/28 15:50:41;;;;;;;4.23;3.10;;;;;;;10.44;76.72;96032.53;8450315;28;20230;-70
2021/12/28 15:54:44;;;;;;;4.07;2.97;;;;;;;10.43;77.07;96036.84;8450687;28;20230;-70
2021/12/28 15:58:48;;;;;;;4.07;3.27;;;;;;;10.48;76.99;96039.13;8450795;28;20234;-70
2021/12/28 16:02:52;;;;;;;5.80;4.40;;;;;;;10.57;75.97;96072.91;8450610;28;20230;-70
2021/12/28 16:06:58;;;;;;;3.20;2.90;;;;;;;10.56;76.59;96093.72;8450303;28;20233;-70
2021/12/28 16:11:01;;;;;;;5.37;4.70;;;;;;;10.63;75.80;96114.81;8450350;28;20236;-69
2021/12/28 16:15:07;;;;;;;3.00;1.47;;;;;;;10.29;76.49;96140.53;8450551;28;20241;-69
2021/12/28 16:19:10;;;;;;;2.43;1.20;;;;;;;9.95;73.58;96205.81;8458077;28;20230;-70
2021/12/28 16:23:13;;;;;;;3.23;1.40;;;;;;;9.75;71.13;96204.63;8450052;28;20537;-69
2021/12/28 16:27:16;;;;;;;4.20;1.00;;;;;;;9.36;69.66;96200.41;8449895;28;20540;-69
2021/12/28 16:31:23;;;;;;;4.73;1.03;;;;;;;9.30;69.50;96193.09;8448396;28;20225;-69
2021/12/28 16:35:26;;;;;;;4.20;1.30;;;;;;;9.34;70.20;96166.13;8448411;28;20245;-69
2021/12/28 16:39:30;;;;;;;8.03;5.17;;;;;;;9.61;69.57;96149.66;8448052;28;20435;-70
2021/12/28 16:43:33;;;;;;;7.57;5.50;;;;;;;9.79;68.47;96114.75;8441479;28;20250;-70
2021/12/28 16:47:38;;;;;;;6.07;2.60;;;;;;;9.76;68.14;96083.94;8447852;28;20238;-70
2021/12/28 16:51:41;;;;;;;2.47;1.30;;;;;;;9.86;67.28;96100.47;8447868;28;20222;-70
2021/12/28 16:55:45;;;;;;;5.17;1.30;;;;;;;10.09;67.51;96110.91;8447732;28;20236;-76
2021/12/28 16:59:48;;;;;;;4.90;1.83;;;;;;;10.06;67.30;96126.66;8447402;28;20237;-70
2021/12/28 17:03:54;;;;;;;5.17;3.67;;;;;;;9.92;67.65;96131.06;8448313;28;20416;-69
2021/12/28 17:07:57;;;;;;;14.00;8.43;;;;;;;10.09;66.58;96139.34;8448126;28;20552;-70
2021/12/28 17:11:59;;;;;;;3.40;1.90;;;;;;;10.06;66.94;96148.19;8447488;28;20222;-69
2021/12/28 17:16:04;;;;;;;3.27;1.37;;;;;;;10.00;66.85;96153.78;8439088;28;20245;-69
2021/12/28 17:20:10;;;;;;;2.70;1.40;;;;;;;9.95;66.78;96159.25;8439759;28;20538;-72
2021/12/28 17:24:13;;;;;;;4.27;1.90;;;;;;;10.04;66.46;96162.97;8432674;28;20221;-70
2021/12/28 17:28:15;;;;;;;4.20;1.60;;;;;;;10.04;66.32;96162.97;8430078;28;20230;-70
2021/12/28 17:32:20;;;;;;;3.10;1.20;;;;;;;9.86;65.63;96122.91;8430788;28;20229;-70
2021/12/28 17:36:24;;;;;;;4.23;1.50;;;;;;;9.84;65.20;96138.50;8430209;28;20312;-69
2021/12/28 17:40:27;;;;;;;6.00;1.50;;;;;;;9.86;63.82;96159.09;8434175;28;20248;-69
2021/12/28 17:44:30;;;;;;;4.37;1.33;;;;;;;9.92;63.58;96163.84;8441896;28;20231;-69
2021/12/28 17:48:33;;;;;;;3.50;1.60;;;;;;;9.84;63.08;96148.84;8440673;28;20233;-69
2021/12/28 17:52:38;;;;;;;3.33;1.40;;;;;;;9.94;63.01;96193.00;8446665;28;20241;-69
2021/12/28 17:56:41;;;;;;;2.63;1.13;;;;;;;9.81;63.48;96195.63;8447206;28;20418;-69
2021/12/28 18:00:44;;;;;;;6.33;1.50;;;;;;;9.74;64.29;96202.97;8447033;28;20256;-69
2021/12/28 18:04:47;;;;;;;4.33;1.57;;;;;;;9.78;64.46;96213.91;8446819;28;20234;-69
2021/12/28 18:08:51;;;;;;;4.60;1.70;;;;;;;9.81;64.71;96221.47;8446549;28;20242;-69
2021/12/28 18:12:54;;;;;;;5.50;1.63;;;;;;;9.77;64.95;96214.88;8446654;28;20230;-69
2021/12/28 18:16:58;;;;;;;4.77;1.63;;;;;;;9.84;64.75;96205.72;8442763;28;20427;-70
2021/12/28 18:21:01;;;;;;;4.67;1.47;;;;;;;9.74;64.51;96226.22;8443982;28;20226;-69
2021/12/28 18:25:12;;;;;;;4.83;1.50;;;;;;;9.74;64.82;96230.56;8444280;28;20233;-69
2021/12/28 18:29:22;;;;;;;4.17;1.57;;;;;;;9.77;64.78;96244.13;8430011;28;20222;-69
2021/12/28 18:33:25;;;;;;;4.70;1.70;;;;;;;9.86;65.05;96244.41;8463395;28;20410;-70
2021/12/28 18:37:28;;;;;;;8.67;2.07;;;;;;;9.71;65.26;96243.69;8454965;28;20260;-69
2021/12/28 18:41:33;;;;;;;7.73;2.27;;;;;;;9.82;65.47;96241.22;8438326;28;20537;-69
2021/12/28 18:45:36;;;;;;;5.33;1.87;;;;;;;9.74;65.81;96241.72;8446226;28;20234;-69
2021/12/28 18:49:40;;;;;;;7.67;2.20;;;;;;;9.75;65.78;96245.16;8446495;28;20237;-69
2021/12/28 18:53:42;;;;;;;8.23;2.30;;;;;;;9.81;65.34;96251.69;8446861;28;20234;-69
2021/12/28 18:57:47;;;;;;;7.50;2.00;;;;;;;9.88;65.32;96248.56;8451996;28;20248;-69
2021/12/28 19:01:56;;;;;;;10.90;2.60;;;;;;;9.90;65.20;96248.44;8453154;28;20230;-69
2021/12/28 19:06:00;;;;;;;7.50;2.27;;;;;;;9.91;64.96;96240.56;8452971;28;20301;-69
2021/12/28 19:10:03;;;;;;;11.30;2.87;;;;;;;9.86;65.42;96250.44;8452596;28;20234;-69